sensor_id;sensor_type;location;lat;lon;timestamp;P1;durP1;ratioP1;P2;durP2;ratioP2
14181;SDS011;7171;50.936;6.764;2022-11-15T00:01:28;3.63;;;2.80;;
14181;SDS011;7171;50.936;6.764;2022-11-15T00:03:55;4.03;;;3.40;;
14181;SDS011;7171;50.936;6.764;2022-11-15T00:06:22;3.97;;;2.93;;
14181;SDS011;7171;50.936;6.764;2022-11-15T00:08:48;5.73;;;3.23;;
14181;SDS011;7171;50.936;6.764;2022-11-15T00:11:15;4.72;;;3.10;;
14181;SDS011;7171;50.936;6.764;2022-11-15T00:13:42;5.00;;;3.33;;
14181;SDS011;7171;50.936;6.764;2022-11-15T00:16:08;4.57;;;2.73;;
14181;SDS011;7171;50.936;6.764;2022-11-15T00:18:37;3.87;;;2.87;;
14181;SDS011;7171;50.936;6.764;2022-11-15T00:21:05;4.93;;;2.83;;
14181;SDS011;7171;50.936;6.764;2022-11-15T00:23:33;3.20;;;2.67;;
14181;SDS011;7171;50.936;6.764;2022-11-15T00:26:00;4.50;;;2.83;;
14181;SDS011;7171;50.936;6.764;2022-11-15T00:28:27;3.57;;;3.20;;
14181;SDS011;7171;50.936;6.764;2022-11-15T00:30:59;4.10;;;2.73;;
14181;SDS011;7171;50.936;6.764;2022-11-15T00:33:26;3.83;;;2.27;;
14181;SDS011;7171;50.936;6.764;2022-11-15T00:35:55;4.17;;;2.40;;
14181;SDS011;7171;50.936;6.764;2022-11-15T00:38:25;5.93;;;2.57;;
14181;SDS011;7171;50.936;6.764;2022-11-15T00:40:56;2.70;;;2.33;;
14181;SDS011;7171;50.936;6.764;2022-11-15T00:43:23;3.70;;;2.80;;
14181;SDS011;7171;50.936;6.764;2022-11-15T00:45:50;4.40;;;2.77;;
14181;SDS011;7171;50.936;6.764;2022-11-15T00:48:16;4.37;;;2.77;;
14181;SDS011;7171;50.936;6.764;2022-11-15T00:50:43;3.30;;;2.73;;
14181;SDS011;7171;50.936;6.764;2022-11-15T00:53:11;2.53;;;2.10;;
14181;SDS011;7171;50.936;6.764;2022-11-15T00:55:38;2.85;;;2.25;;
14181;SDS011;7171;50.936;6.764;2022-11-15T00:58:04;2.80;;;2.40;;
14181;SDS011;7171;50.936;6.764;2022-11-15T01:00:31;2.17;;;1.97;;
14181;SDS011;7171;50.936;6.764;2022-11-15T01:02:59;2.25;;;2.03;;
14181;SDS011;7171;50.936;6.764;2022-11-15T01:05:26;3.42;;;2.45;;
14181;SDS011;7171;50.936;6.764;2022-11-15T01:07:53;5.10;;;3.00;;
14181;SDS011;7171;50.936;6.764;2022-11-15T01:10:21;5.07;;;2.73;;
14181;SDS011;7171;50.936;6.764;2022-11-15T01:12:48;3.03;;;2.25;;
14181;SDS011;7171;50.936;6.764;2022-11-15T01:15:16;4.27;;;2.20;;
14181;SDS011;7171;50.936;6.764;2022-11-15T01:17:42;2.93;;;2.20;;
14181;SDS011;7171;50.936;6.764;2022-11-15T01:20:09;4.43;;;2.70;;
14181;SDS011;7171;50.936;6.764;2022-11-15T01:22:36;3.57;;;2.70;;
14181;SDS011;7171;50.936;6.764;2022-11-15T01:25:03;3.57;;;2.60;;
14181;SDS011;7171;50.936;6.764;2022-11-15T01:27:31;2.47;;;2.27;;
14181;SDS011;7171;50.936;6.764;2022-11-15T01:29:58;3.15;;;2.53;;
14181;SDS011;7171;50.936;6.764;2022-11-15T01:32:25;2.50;;;2.30;;
14181;SDS011;7171;50.936;6.764;2022-11-15T01:34:52;2.85;;;2.20;;
14181;SDS011;7171;50.936;6.764;2022-11-15T01:37:18;3.63;;;2.17;;
14181;SDS011;7171;50.936;6.764;2022-11-15T01:39:45;3.03;;;2.33;;
14181;SDS011;7171;50.936;6.764;2022-11-15T01:42:12;6.03;;;2.57;;
14181;SDS011;7171;50.936;6.764;2022-11-15T01:44:42;4.63;;;2.42;;
14181;SDS011;7171;50.936;6.764;2022-11-15T01:47:12;4.97;;;2.30;;
14181;SDS011;7171;50.936;6.764;2022-11-15T01:49:45;2.40;;;2.10;;
14181;SDS011;7171;50.936;6.764;2022-11-15T01:52:19;5.53;;;1.98;;
14181;SDS011;7171;50.936;6.764;2022-11-15T01:54:48;3.23;;;2.10;;
14181;SDS011;7171;50.936;6.764;2022-11-15T01:57:19;4.10;;;2.70;;
14181;SDS011;7171;50.936;6.764;2022-11-15T01:59:47;2.60;;;2.05;;
14181;SDS011;7171;50.936;6.764;2022-11-15T02:02:14;3.22;;;2.15;;
14181;SDS011;7171;50.936;6.764;2022-11-15T02:04:41;3.35;;;2.28;;
14181;SDS011;7171;50.936;6.764;2022-11-15T02:07:10;4.35;;;2.72;;
14181;SDS011;7171;50.936;6.764;2022-11-15T02:09:38;3.90;;;2.88;;
14181;SDS011;7171;50.936;6.764;2022-11-15T02:12:06;2.88;;;2.42;;
14181;SDS011;7171;50.936;6.764;2022-11-15T02:14:34;3.90;;;2.53;;
14181;SDS011;7171;50.936;6.764;2022-11-15T02:17:07;3.40;;;2.70;;
14181;SDS011;7171;50.936;6.764;2022-11-15T02:19:56;3.65;;;2.78;;
14181;SDS011;7171;50.936;6.764;2022-11-15T02:23:13;4.10;;;2.90;;
14181;SDS011;7171;50.936;6.764;2022-11-15T02:26:07;3.70;;;2.78;;
14181;SDS011;7171;50.936;6.764;2022-11-15T02:28:52;3.38;;;2.28;;
14181;SDS011;7171;50.936;6.764;2022-11-15T02:31:28;5.32;;;2.58;;
14181;SDS011;7171;50.936;6.764;2022-11-15T02:34:03;4.32;;;2.55;;
14181;SDS011;7171;50.936;6.764;2022-11-15T02:36:36;5.57;;;2.65;;
14181;SDS011;7171;50.936;6.764;2022-11-15T02:39:09;4.63;;;2.90;;
14181;SDS011;7171;50.936;6.764;2022-11-15T02:41:42;3.67;;;2.78;;
14181;SDS011;7171;50.936;6.764;2022-11-15T02:44:14;3.78;;;2.63;;
14181;SDS011;7171;50.936;6.764;2022-11-15T02:46:46;3.85;;;2.47;;
14181;SDS011;7171;50.936;6.764;2022-11-15T02:49:32;3.67;;;2.58;;
14181;SDS011;7171;50.936;6.764;2022-11-15T02:52:00;2.80;;;2.55;;
14181;SDS011;7171;50.936;6.764;2022-11-15T02:54:28;3.08;;;2.58;;
14181;SDS011;7171;50.936;6.764;2022-11-15T02:56:59;3.05;;;2.78;;
14181;SDS011;7171;50.936;6.764;2022-11-15T02:59:38;2.58;;;2.08;;
14181;SDS011;7171;50.936;6.764;2022-11-15T03:02:33;3.47;;;2.40;;
14181;SDS011;7171;50.936;6.764;2022-11-15T03:05:10;2.58;;;2.30;;
14181;SDS011;7171;50.936;6.764;2022-11-15T03:07:48;4.20;;;2.20;;
14181;SDS011;7171;50.936;6.764;2022-11-15T03:10:20;2.55;;;2.13;;
14181;SDS011;7171;50.936;6.764;2022-11-15T03:12:51;3.50;;;1.98;;
14181;SDS011;7171;50.936;6.764;2022-11-15T03:15:23;3.25;;;2.15;;
14181;SDS011;7171;50.936;6.764;2022-11-15T03:17:58;2.33;;;2.10;;
14181;SDS011;7171;50.936;6.764;2022-11-15T03:20:27;2.38;;;2.05;;
14181;SDS011;7171;50.936;6.764;2022-11-15T03:22:55;3.00;;;2.22;;
14181;SDS011;7171;50.936;6.764;2022-11-15T03:25:27;4.28;;;2.03;;
14181;SDS011;7171;50.936;6.764;2022-11-15T03:27:56;3.65;;;2.05;;
14181;SDS011;7171;50.936;6.764;2022-11-15T03:30:24;3.85;;;1.77;;
14181;SDS011;7171;50.936;6.764;2022-11-15T03:32:52;3.45;;;2.53;;
14181;SDS011;7171;50.936;6.764;2022-11-15T03:35:23;3.22;;;2.08;;
14181;SDS011;7171;50.936;6.764;2022-11-15T03:37:54;4.35;;;1.80;;
14181;SDS011;7171;50.936;6.764;2022-11-15T03:40:25;3.28;;;2.13;;
14181;SDS011;7171;50.936;6.764;2022-11-15T03:42:58;2.47;;;2.05;;
14181;SDS011;7171;50.936;6.764;2022-11-15T03:45:31;3.07;;;2.33;;
14181;SDS011;7171;50.936;6.764;2022-11-15T03:48:02;2.78;;;2.20;;
14181;SDS011;7171;50.936;6.764;2022-11-15T03:50:36;2.97;;;2.10;;
14181;SDS011;7171;50.936;6.764;2022-11-15T03:53:03;2.10;;;1.90;;
14181;SDS011;7171;50.936;6.764;2022-11-15T03:55:31;2.90;;;1.65;;
14181;SDS011;7171;50.936;6.764;2022-11-15T03:57:59;1.95;;;1.50;;
14181;SDS011;7171;50.936;6.764;2022-11-15T04:00:27;1.70;;;1.50;;
14181;SDS011;7171;50.936;6.764;2022-11-15T04:02:54;2.20;;;1.58;;
14181;SDS011;7171;50.936;6.764;2022-11-15T04:05:21;3.72;;;1.80;;
14181;SDS011;7171;50.936;6.764;2022-11-15T04:07:49;2.53;;;1.65;;
14181;SDS011;7171;50.936;6.764;2022-11-15T04:10:15;1.80;;;1.60;;
14181;SDS011;7171;50.936;6.764;2022-11-15T04:12:43;1.85;;;1.45;;
14181;SDS011;7171;50.936;6.764;2022-11-15T04:15:13;1.55;;;1.42;;
14181;SDS011;7171;50.936;6.764;2022-11-15T04:17:42;2.53;;;1.52;;
14181;SDS011;7171;50.936;6.764;2022-11-15T04:20:11;1.80;;;1.33;;
14181;SDS011;7171;50.936;6.764;2022-11-15T04:22:58;2.30;;;1.63;;
14181;SDS011;7171;50.936;6.764;2022-11-15T04:25:44;2.95;;;1.75;;
14181;SDS011;7171;50.936;6.764;2022-11-15T04:28:11;2.90;;;2.08;;
14181;SDS011;7171;50.936;6.764;2022-11-15T04:30:38;1.75;;;1.55;;
14181;SDS011;7171;50.936;6.764;2022-11-15T04:33:05;1.63;;;1.52;;
14181;SDS011;7171;50.936;6.764;2022-11-15T04:35:32;2.58;;;1.60;;
14181;SDS011;7171;50.936;6.764;2022-11-15T04:38:00;3.80;;;1.80;;
14181;SDS011;7171;50.936;6.764;2022-11-15T04:40:28;2.67;;;1.45;;
14181;SDS011;7171;50.936;6.764;2022-11-15T04:42:55;1.70;;;1.60;;
14181;SDS011;7171;50.936;6.764;2022-11-15T04:45:22;3.40;;;1.48;;
14181;SDS011;7171;50.936;6.764;2022-11-15T04:47:49;3.00;;;1.80;;
14181;SDS011;7171;50.936;6.764;2022-11-15T04:50:16;1.55;;;1.45;;
14181;SDS011;7171;50.936;6.764;2022-11-15T04:52:43;3.15;;;1.48;;
14181;SDS011;7171;50.936;6.764;2022-11-15T04:55:17;1.27;;;1.17;;
14181;SDS011;7171;50.936;6.764;2022-11-15T04:57:44;1.73;;;1.50;;
14181;SDS011;7171;50.936;6.764;2022-11-15T05:00:12;2.67;;;1.60;;
14181;SDS011;7171;50.936;6.764;2022-11-15T05:02:40;2.88;;;1.38;;
14181;SDS011;7171;50.936;6.764;2022-11-15T05:05:21;1.40;;;1.30;;
14181;SDS011;7171;50.936;6.764;2022-11-15T05:07:48;1.33;;;1.20;;
14181;SDS011;7171;50.936;6.764;2022-11-15T05:10:14;1.23;;;1.13;;
14181;SDS011;7171;50.936;6.764;2022-11-15T05:12:42;3.33;;;1.35;;
14181;SDS011;7171;50.936;6.764;2022-11-15T05:15:09;1.20;;;1.10;;
14181;SDS011;7171;50.936;6.764;2022-11-15T05:17:36;1.10;;;1.00;;
14181;SDS011;7171;50.936;6.764;2022-11-15T05:20:03;1.20;;;1.10;;
14181;SDS011;7171;50.936;6.764;2022-11-15T05:22:30;1.30;;;1.20;;
14181;SDS011;7171;50.936;6.764;2022-11-15T05:24:57;0.98;;;0.98;;
14181;SDS011;7171;50.936;6.764;2022-11-15T05:27:23;1.13;;;0.98;;
14181;SDS011;7171;50.936;6.764;2022-11-15T05:29:51;0.93;;;0.88;;
14181;SDS011;7171;50.936;6.764;2022-11-15T05:32:18;0.80;;;0.80;;
14181;SDS011;7171;50.936;6.764;2022-11-15T05:34:45;0.90;;;0.70;;
14181;SDS011;7171;50.936;6.764;2022-11-15T05:37:12;0.80;;;0.80;;
14181;SDS011;7171;50.936;6.764;2022-11-15T05:39:39;0.75;;;0.73;;
14181;SDS011;7171;50.936;6.764;2022-11-15T05:42:06;0.60;;;0.60;;
14181;SDS011;7171;50.936;6.764;2022-11-15T05:44:36;0.80;;;0.80;;
14181;SDS011;7171;50.936;6.764;2022-11-15T05:47:05;1.17;;;0.95;;
14181;SDS011;7171;50.936;6.764;2022-11-15T05:49:34;0.80;;;0.80;;
14181;SDS011;7171;50.936;6.764;2022-11-15T05:52:03;0.75;;;0.75;;
14181;SDS011;7171;50.936;6.764;2022-11-15T05:54:33;0.80;;;0.80;;
14181;SDS011;7171;50.936;6.764;2022-11-15T05:57:02;1.10;;;1.00;;
14181;SDS011;7171;50.936;6.764;2022-11-15T05:59:30;1.65;;;1.00;;
14181;SDS011;7171;50.936;6.764;2022-11-15T06:01:59;1.27;;;0.93;;
14181;SDS011;7171;50.936;6.764;2022-11-15T06:04:27;1.00;;;0.90;;
14181;SDS011;7171;50.936;6.764;2022-11-15T06:06:54;1.00;;;0.90;;
14181;SDS011;7171;50.936;6.764;2022-11-15T06:09:20;0.80;;;0.80;;
14181;SDS011;7171;50.936;6.764;2022-11-15T06:11:47;0.80;;;0.80;;
14181;SDS011;7171;50.936;6.764;2022-11-15T06:14:14;1.70;;;1.13;;
14181;SDS011;7171;50.936;6.764;2022-11-15T06:16:40;0.85;;;0.75;;
14181;SDS011;7171;50.936;6.764;2022-11-15T06:19:07;1.27;;;0.90;;
14181;SDS011;7171;50.936;6.764;2022-11-15T06:21:35;2.05;;;1.20;;
14181;SDS011;7171;50.936;6.764;2022-11-15T06:24:02;1.00;;;0.90;;
14181;SDS011;7171;50.936;6.764;2022-11-15T06:26:29;1.33;;;1.00;;
14181;SDS011;7171;50.936;6.764;2022-11-15T06:28:56;1.02;;;0.93;;
14181;SDS011;7171;50.936;6.764;2022-11-15T06:31:23;1.27;;;0.90;;
14181;SDS011;7171;50.936;6.764;2022-11-15T06:33:49;1.55;;;0.88;;
14181;SDS011;7171;50.936;6.764;2022-11-15T06:36:16;1.02;;;0.95;;
14181;SDS011;7171;50.936;6.764;2022-11-15T06:38:45;0.60;;;0.60;;
14181;SDS011;7171;50.936;6.764;2022-11-15T06:41:12;1.65;;;1.08;;
14181;SDS011;7171;50.936;6.764;2022-11-15T06:43:39;0.77;;;0.77;;
14181;SDS011;7171;50.936;6.764;2022-11-15T06:46:07;0.80;;;0.80;;
14181;SDS011;7171;50.936;6.764;2022-11-15T06:48:34;1.85;;;1.15;;
14181;SDS011;7171;50.936;6.764;2022-11-15T06:51:02;0.98;;;0.77;;
14181;SDS011;7171;50.936;6.764;2022-11-15T06:53:32;2.65;;;1.10;;
14181;SDS011;7171;50.936;6.764;2022-11-15T06:56:00;1.58;;;0.93;;
14181;SDS011;7171;50.936;6.764;2022-11-15T06:58:28;1.05;;;0.90;;
14181;SDS011;7171;50.936;6.764;2022-11-15T07:00:57;0.80;;;0.80;;
14181;SDS011;7171;50.936;6.764;2022-11-15T07:03:25;1.10;;;0.98;;
14181;SDS011;7171;50.936;6.764;2022-11-15T07:05:52;0.80;;;0.80;;
14181;SDS011;7171;50.936;6.764;2022-11-15T07:08:19;1.08;;;1.00;;
14181;SDS011;7171;50.936;6.764;2022-11-15T07:10:47;1.00;;;1.00;;
14181;SDS011;7171;50.936;6.764;2022-11-15T07:13:15;1.10;;;1.00;;
14181;SDS011;7171;50.936;6.764;2022-11-15T07:15:42;1.00;;;1.00;;
14181;SDS011;7171;50.936;6.764;2022-11-15T07:18:08;1.27;;;1.13;;
14181;SDS011;7171;50.936;6.764;2022-11-15T07:20:35;2.05;;;1.23;;
14181;SDS011;7171;50.936;6.764;2022-11-15T07:23:02;0.90;;;0.90;;
14181;SDS011;7171;50.936;6.764;2022-11-15T07:25:29;1.23;;;1.10;;
14181;SDS011;7171;50.936;6.764;2022-11-15T07:27:57;1.35;;;1.08;;
14181;SDS011;7171;50.936;6.764;2022-11-15T07:30:26;1.10;;;1.00;;
14181;SDS011;7171;50.936;6.764;2022-11-15T07:32:53;0.88;;;0.88;;
14181;SDS011;7171;50.936;6.764;2022-11-15T07:35:20;1.38;;;1.00;;
14181;SDS011;7171;50.936;6.764;2022-11-15T07:37:52;2.13;;;0.80;;
14181;SDS011;7171;50.936;6.764;2022-11-15T07:40:20;0.93;;;0.93;;
14181;SDS011;7171;50.936;6.764;2022-11-15T07:42:47;3.42;;;1.15;;
14181;SDS011;7171;50.936;6.764;2022-11-15T07:45:20;1.70;;;1.10;;
14181;SDS011;7171;50.936;6.764;2022-11-15T07:47:49;1.05;;;0.80;;
14181;SDS011;7171;50.936;6.764;2022-11-15T07:50:16;0.93;;;0.93;;
14181;SDS011;7171;50.936;6.764;2022-11-15T07:52:44;1.63;;;0.90;;
14181;SDS011;7171;50.936;6.764;2022-11-15T07:55:11;1.80;;;1.25;;
14181;SDS011;7171;50.936;6.764;2022-11-15T07:57:37;1.52;;;0.95;;
14181;SDS011;7171;50.936;6.764;2022-11-15T08:00:05;1.33;;;0.90;;
14181;SDS011;7171;50.936;6.764;2022-11-15T08:02:32;1.00;;;0.90;;
14181;SDS011;7171;50.936;6.764;2022-11-15T08:05:00;1.23;;;1.13;;
14181;SDS011;7171;50.936;6.764;2022-11-15T08:07:28;0.80;;;0.80;;
14181;SDS011;7171;50.936;6.764;2022-11-15T08:09:56;1.00;;;0.90;;
14181;SDS011;7171;50.936;6.764;2022-11-15T08:12:23;0.90;;;0.90;;
14181;SDS011;7171;50.936;6.764;2022-11-15T08:14:49;1.25;;;0.98;;
14181;SDS011;7171;50.936;6.764;2022-11-15T08:17:16;2.05;;;1.10;;
14181;SDS011;7171;50.936;6.764;2022-11-15T08:19:43;1.15;;;1.00;;
14181;SDS011;7171;50.936;6.764;2022-11-15T08:22:11;0.70;;;0.70;;
14181;SDS011;7171;50.936;6.764;2022-11-15T08:24:37;0.70;;;0.70;;
14181;SDS011;7171;50.936;6.764;2022-11-15T08:27:04;1.20;;;0.80;;
14181;SDS011;7171;50.936;6.764;2022-11-15T08:29:40;1.27;;;1.15;;
14181;SDS011;7171;50.936;6.764;2022-11-15T08:32:07;1.00;;;0.90;;
14181;SDS011;7171;50.936;6.764;2022-11-15T08:34:34;0.85;;;0.82;;
14181;SDS011;7171;50.936;6.764;2022-11-15T08:37:01;0.93;;;0.93;;
14181;SDS011;7171;50.936;6.764;2022-11-15T08:39:29;1.23;;;1.10;;
14181;SDS011;7171;50.936;6.764;2022-11-15T08:41:56;0.90;;;0.90;;
14181;SDS011;7171;50.936;6.764;2022-11-15T08:44:23;1.40;;;0.95;;
14181;SDS011;7171;50.936;6.764;2022-11-15T08:46:50;1.15;;;1.10;;
14181;SDS011;7171;50.936;6.764;2022-11-15T08:49:16;0.90;;;0.90;;
14181;SDS011;7171;50.936;6.764;2022-11-15T08:51:44;1.02;;;0.80;;
14181;SDS011;7171;50.936;6.764;2022-11-15T08:54:10;1.63;;;1.08;;
14181;SDS011;7171;50.936;6.764;2022-11-15T08:56:38;0.90;;;0.90;;
14181;SDS011;7171;50.936;6.764;2022-11-15T08:59:05;3.35;;;0.98;;
14181;SDS011;7171;50.936;6.764;2022-11-15T09:01:32;1.63;;;1.00;;
14181;SDS011;7171;50.936;6.764;2022-11-15T09:03:58;1.50;;;1.25;;
14181;SDS011;7171;50.936;6.764;2022-11-15T09:06:25;1.08;;;1.05;;
14181;SDS011;7171;50.936;6.764;2022-11-15T09:08:52;1.23;;;0.80;;
14181;SDS011;7171;50.936;6.764;2022-11-15T09:11:18;1.30;;;1.20;;
14181;SDS011;7171;50.936;6.764;2022-11-15T09:13:48;0.80;;;0.80;;
14181;SDS011;7171;50.936;6.764;2022-11-15T09:16:15;0.73;;;0.73;;
14181;SDS011;7171;50.936;6.764;2022-11-15T09:18:42;1.42;;;0.80;;
14181;SDS011;7171;50.936;6.764;2022-11-15T09:21:08;0.80;;;0.80;;
14181;SDS011;7171;50.936;6.764;2022-11-15T09:23:36;1.70;;;0.93;;
14181;SDS011;7171;50.936;6.764;2022-11-15T09:26:03;0.70;;;0.70;;
14181;SDS011;7171;50.936;6.764;2022-11-15T09:28:31;1.00;;;0.90;;
14181;SDS011;7171;50.936;6.764;2022-11-15T09:33:30;0.60;;;0.57;;
14181;SDS011;7171;50.936;6.764;2022-11-15T09:35:59;1.13;;;0.85;;
14181;SDS011;7171;50.936;6.764;2022-11-15T09:38:27;0.57;;;0.57;;
14181;SDS011;7171;50.936;6.764;2022-11-15T09:43:50;0.65;;;0.65;;
14181;SDS011;7171;50.936;6.764;2022-11-15T09:46:28;0.90;;;0.90;;
14181;SDS011;7171;50.936;6.764;2022-11-15T09:49:03;3.10;;;1.10;;
14181;SDS011;7171;50.936;6.764;2022-11-15T09:51:32;0.73;;;0.73;;
14181;SDS011;7171;50.936;6.764;2022-11-15T09:54:05;0.63;;;0.63;;
14181;SDS011;7171;50.936;6.764;2022-11-15T09:56:40;0.70;;;0.70;;
14181;SDS011;7171;50.936;6.764;2022-11-15T09:59:25;0.70;;;0.70;;
14181;SDS011;7171;50.936;6.764;2022-11-15T10:02:09;0.73;;;0.70;;
14181;SDS011;7171;50.936;6.764;2022-11-15T10:04:48;1.02;;;0.93;;
14181;SDS011;7171;50.936;6.764;2022-11-15T10:07:16;0.68;;;0.68;;
14181;SDS011;7171;50.936;6.764;2022-11-15T10:09:49;0.77;;;0.77;;
14181;SDS011;7171;50.936;6.764;2022-11-15T10:12:20;0.80;;;0.70;;
14181;SDS011;7171;50.936;6.764;2022-11-15T10:14:47;0.80;;;0.80;;
14181;SDS011;7171;50.936;6.764;2022-11-15T10:17:26;0.65;;;0.65;;
14181;SDS011;7171;50.936;6.764;2022-11-15T10:20:16;1.30;;;0.80;;
14181;SDS011;7171;50.936;6.764;2022-11-15T10:22:46;0.70;;;0.70;;
14181;SDS011;7171;50.936;6.764;2022-11-15T10:25:17;0.60;;;0.60;;
14181;SDS011;7171;50.936;6.764;2022-11-15T10:27:47;0.80;;;0.80;;
14181;SDS011;7171;50.936;6.764;2022-11-15T10:30:18;1.75;;;0.68;;
14181;SDS011;7171;50.936;6.764;2022-11-15T10:32:47;0.82;;;0.82;;
14181;SDS011;7171;50.936;6.764;2022-11-15T10:35:16;1.05;;;0.90;;
14181;SDS011;7171;50.936;6.764;2022-11-15T10:37:50;0.55;;;0.55;;
14181;SDS011;7171;50.936;6.764;2022-11-15T10:40:18;0.70;;;0.70;;
14181;SDS011;7171;50.936;6.764;2022-11-15T10:42:47;0.50;;;0.50;;
14181;SDS011;7171;50.936;6.764;2022-11-15T10:45:25;0.60;;;0.60;;
14181;SDS011;7171;50.936;6.764;2022-11-15T10:47:55;1.23;;;0.60;;
14181;SDS011;7171;50.936;6.764;2022-11-15T10:50:51;1.02;;;0.60;;
14181;SDS011;7171;50.936;6.764;2022-11-15T10:53:21;0.52;;;0.52;;
14181;SDS011;7171;50.936;6.764;2022-11-15T10:55:52;0.65;;;0.60;;
14181;SDS011;7171;50.936;6.764;2022-11-15T10:58:22;0.60;;;0.60;;
14181;SDS011;7171;50.936;6.764;2022-11-15T11:01:08;0.75;;;0.75;;
14181;SDS011;7171;50.936;6.764;2022-11-15T11:03:40;0.75;;;0.60;;
14181;SDS011;7171;50.936;6.764;2022-11-15T11:06:09;0.70;;;0.70;;
14181;SDS011;7171;50.936;6.764;2022-11-15T11:08:38;0.60;;;0.60;;
14181;SDS011;7171;50.936;6.764;2022-11-15T11:11:06;0.52;;;0.52;;
14181;SDS011;7171;50.936;6.764;2022-11-15T11:13:34;0.60;;;0.60;;
14181;SDS011;7171;50.936;6.764;2022-11-15T11:16:15;0.80;;;0.80;;
14181;SDS011;7171;50.936;6.764;2022-11-15T11:18:55;0.50;;;0.50;;
14181;SDS011;7171;50.936;6.764;2022-11-15T11:21:32;1.77;;;0.57;;
14181;SDS011;7171;50.936;6.764;2022-11-15T11:24:07;1.10;;;0.70;;
14181;SDS011;7171;50.936;6.764;2022-11-15T11:26:45;0.60;;;0.50;;
14181;SDS011;7171;50.936;6.764;2022-11-15T11:29:26;0.50;;;0.50;;
14181;SDS011;7171;50.936;6.764;2022-11-15T11:32:03;0.40;;;0.40;;
14181;SDS011;7171;50.936;6.764;2022-11-15T11:34:53;1.15;;;0.60;;
14181;SDS011;7171;50.936;6.764;2022-11-15T11:37:29;1.10;;;0.50;;
14181;SDS011;7171;50.936;6.764;2022-11-15T11:40:06;0.55;;;0.55;;
14181;SDS011;7171;50.936;6.764;2022-11-15T11:42:49;0.70;;;0.70;;
14181;SDS011;7171;50.936;6.764;2022-11-15T11:45:26;0.50;;;0.50;;
14181;SDS011;7171;50.936;6.764;2022-11-15T11:48:09;0.60;;;0.55;;
14181;SDS011;7171;50.936;6.764;2022-11-15T11:50:39;0.73;;;0.73;;
14181;SDS011;7171;50.936;6.764;2022-11-15T11:53:09;1.50;;;0.90;;
14181;SDS011;7171;50.936;6.764;2022-11-15T11:55:39;0.50;;;0.50;;
14181;SDS011;7171;50.936;6.764;2022-11-15T11:58:11;0.93;;;0.70;;
14181;SDS011;7171;50.936;6.764;2022-11-15T12:00:43;0.70;;;0.70;;
14181;SDS011;7171;50.936;6.764;2022-11-15T12:03:14;1.02;;;0.93;;
14181;SDS011;7171;50.936;6.764;2022-11-15T12:05:50;0.60;;;0.60;;
14181;SDS011;7171;50.936;6.764;2022-11-15T12:08:22;1.05;;;0.80;;
14181;SDS011;7171;50.936;6.764;2022-11-15T12:10:55;1.40;;;0.70;;
14181;SDS011;7171;50.936;6.764;2022-11-15T12:13:26;0.75;;;0.63;;
14181;SDS011;7171;50.936;6.764;2022-11-15T12:15:59;0.70;;;0.70;;
14181;SDS011;7171;50.936;6.764;2022-11-15T12:18:32;1.65;;;0.70;;
14181;SDS011;7171;50.936;6.764;2022-11-15T12:21:02;0.50;;;0.50;;
14181;SDS011;7171;50.936;6.764;2022-11-15T12:23:37;0.60;;;0.60;;
14181;SDS011;7171;50.936;6.764;2022-11-15T12:26:08;0.70;;;0.70;;
14181;SDS011;7171;50.936;6.764;2022-11-15T12:28:42;0.88;;;0.70;;
14181;SDS011;7171;50.936;6.764;2022-11-15T12:31:14;0.68;;;0.65;;
14181;SDS011;7171;50.936;6.764;2022-11-15T12:33:45;2.03;;;0.70;;
14181;SDS011;7171;50.936;6.764;2022-11-15T12:39:07;0.55;;;0.50;;
14181;SDS011;7171;50.936;6.764;2022-11-15T12:41:35;1.65;;;0.98;;
14181;SDS011;7171;50.936;6.764;2022-11-15T12:44:03;1.45;;;0.70;;
14181;SDS011;7171;50.936;6.764;2022-11-15T12:49:47;0.60;;;0.60;;
14181;SDS011;7171;50.936;6.764;2022-11-15T12:52:14;0.88;;;0.70;;
14181;SDS011;7171;50.936;6.764;2022-11-15T12:54:57;0.88;;;0.60;;
14181;SDS011;7171;50.936;6.764;2022-11-15T12:57:31;0.60;;;0.57;;
14181;SDS011;7171;50.936;6.764;2022-11-15T13:06:03;0.68;;;0.68;;
14181;SDS011;7171;50.936;6.764;2022-11-15T13:08:59;0.43;;;0.43;;
14181;SDS011;7171;50.936;6.764;2022-11-15T13:11:42;0.60;;;0.60;;
14181;SDS011;7171;50.936;6.764;2022-11-15T13:17:23;0.75;;;0.75;;
14181;SDS011;7171;50.936;6.764;2022-11-15T13:20:07;1.05;;;0.80;;
14181;SDS011;7171;50.936;6.764;2022-11-15T13:22:45;1.23;;;0.75;;
14181;SDS011;7171;50.936;6.764;2022-11-15T13:28:21;0.80;;;0.80;;
14181;SDS011;7171;50.936;6.764;2022-11-15T13:30:54;1.02;;;0.93;;
14181;SDS011;7171;50.936;6.764;2022-11-15T13:33:24;1.10;;;0.70;;
14181;SDS011;7171;50.936;6.764;2022-11-15T13:35:56;0.80;;;0.77;;
14181;SDS011;7171;50.936;6.764;2022-11-15T13:38:25;0.85;;;0.85;;
14181;SDS011;7171;50.936;6.764;2022-11-15T13:40:54;1.10;;;0.90;;
14181;SDS011;7171;50.936;6.764;2022-11-15T13:43:31;0.75;;;0.75;;
14181;SDS011;7171;50.936;6.764;2022-11-15T13:46:09;1.25;;;1.10;;
14181;SDS011;7171;50.936;6.764;2022-11-15T13:48:38;0.80;;;0.80;;
14181;SDS011;7171;50.936;6.764;2022-11-15T13:51:06;2.78;;;1.27;;
14181;SDS011;7171;50.936;6.764;2022-11-15T13:53:39;2.50;;;1.20;;
14181;SDS011;7171;50.936;6.764;2022-11-15T13:56:11;2.83;;;1.38;;
14181;SDS011;7171;50.936;6.764;2022-11-15T13:58:40;2.63;;;1.33;;
14181;SDS011;7171;50.936;6.764;2022-11-15T14:01:08;1.73;;;1.10;;
14181;SDS011;7171;50.936;6.764;2022-11-15T14:03:46;0.93;;;0.90;;
14181;SDS011;7171;50.936;6.764;2022-11-15T14:06:17;1.42;;;1.30;;
14181;SDS011;7171;50.936;6.764;2022-11-15T14:08:58;1.63;;;1.30;;
14181;SDS011;7171;50.936;6.764;2022-11-15T14:11:27;1.30;;;1.20;;
14181;SDS011;7171;50.936;6.764;2022-11-15T14:14:08;2.03;;;1.20;;
14181;SDS011;7171;50.936;6.764;2022-11-15T14:16:39;0.98;;;0.85;;
14181;SDS011;7171;50.936;6.764;2022-11-15T14:19:09;2.08;;;1.20;;
14181;SDS011;7171;50.936;6.764;2022-11-15T14:21:37;1.23;;;1.13;;
14181;SDS011;7171;50.936;6.764;2022-11-15T14:24:38;6.72;;;1.15;;
14181;SDS011;7171;50.936;6.764;2022-11-15T14:27:19;1.55;;;1.23;;
14181;SDS011;7171;50.936;6.764;2022-11-15T14:29:49;1.55;;;1.20;;
14181;SDS011;7171;50.936;6.764;2022-11-15T14:32:17;1.75;;;1.27;;
14181;SDS011;7171;50.936;6.764;2022-11-15T14:34:46;2.72;;;1.38;;
14181;SDS011;7171;50.936;6.764;2022-11-15T14:37:18;1.10;;;1.00;;
14181;SDS011;7171;50.936;6.764;2022-11-15T14:39:47;1.25;;;1.10;;
14181;SDS011;7171;50.936;6.764;2022-11-15T14:42:14;1.65;;;1.10;;
14181;SDS011;7171;50.936;6.764;2022-11-15T14:44:40;1.65;;;1.55;;
14181;SDS011;7171;50.936;6.764;2022-11-15T14:47:09;1.20;;;1.10;;
14181;SDS011;7171;50.936;6.764;2022-11-15T14:49:35;1.33;;;1.15;;
14181;SDS011;7171;50.936;6.764;2022-11-15T14:52:02;1.35;;;1.25;;
14181;SDS011;7171;50.936;6.764;2022-11-15T14:54:37;1.92;;;1.65;;
14181;SDS011;7171;50.936;6.764;2022-11-15T14:57:04;1.80;;;1.50;;
14181;SDS011;7171;50.936;6.764;2022-11-15T14:59:31;1.80;;;1.40;;
14181;SDS011;7171;50.936;6.764;2022-11-15T15:01:57;2.08;;;1.42;;
14181;SDS011;7171;50.936;6.764;2022-11-15T15:04:26;1.77;;;1.33;;
14181;SDS011;7171;50.936;6.764;2022-11-15T15:07:19;1.73;;;1.17;;
14181;SDS011;7171;50.936;6.764;2022-11-15T15:09:46;2.17;;;1.33;;
14181;SDS011;7171;50.936;6.764;2022-11-15T15:12:14;1.75;;;1.20;;
14181;SDS011;7171;50.936;6.764;2022-11-15T15:14:43;2.70;;;1.33;;
14181;SDS011;7171;50.936;6.764;2022-11-15T15:17:10;1.58;;;1.40;;
14181;SDS011;7171;50.936;6.764;2022-11-15T15:19:38;1.30;;;1.20;;
14181;SDS011;7171;50.936;6.764;2022-11-15T15:22:05;1.40;;;0.98;;
14181;SDS011;7171;50.936;6.764;2022-11-15T15:24:35;1.50;;;1.20;;
14181;SDS011;7171;50.936;6.764;2022-11-15T15:27:01;1.60;;;1.35;;
14181;SDS011;7171;50.936;6.764;2022-11-15T15:29:28;1.15;;;1.05;;
14181;SDS011;7171;50.936;6.764;2022-11-15T15:31:55;1.58;;;1.30;;
14181;SDS011;7171;50.936;6.764;2022-11-15T15:34:22;0.90;;;0.90;;
14181;SDS011;7171;50.936;6.764;2022-11-15T15:36:50;1.20;;;1.10;;
14181;SDS011;7171;50.936;6.764;2022-11-15T15:39:33;1.20;;;0.93;;
14181;SDS011;7171;50.936;6.764;2022-11-15T15:41:59;1.35;;;1.20;;
14181;SDS011;7171;50.936;6.764;2022-11-15T15:44:26;1.13;;;1.02;;